createdAt,value
2023-05-26T00:03:12.452Z,3.65
2023-05-26T00:07:19.313Z,2.63
2023-05-26T00:11:26.111Z,3.50
2023-05-26T00:15:32.863Z,3.75
2023-05-26T00:19:39.983Z,2.40
2023-05-26T00:23:46.683Z,2.90
2023-05-26T00:27:53.371Z,3.50
2023-05-26T00:32:00.122Z,2.97
2023-05-26T00:36:07.035Z,3.15
2023-05-26T00:40:14.069Z,3.42
2023-05-26T00:44:22.607Z,3.97
2023-05-26T00:48:29.281Z,3.15
2023-05-26T00:52:36.097Z,2.67
2023-05-26T00:56:43.155Z,2.33
2023-05-26T01:00:49.943Z,2.80
2023-05-26T01:04:56.716Z,2.05
2023-05-26T01:09:04.836Z,2.78
2023-05-26T01:13:21.107Z,4.20
2023-05-26T01:17:48.416Z,2.25
2023-05-26T01:22:04.331Z,3.13
2023-05-26T01:26:40.094Z,4.35
2023-05-26T01:30:48.739Z,2.47
2023-05-26T01:34:55.708Z,2.78
2023-05-26T01:39:03.237Z,4.30
2023-05-26T01:43:24.183Z,2.15
2023-05-26T01:47:32.647Z,3.05
2023-05-26T01:51:43.367Z,3.42
2023-05-26T01:55:56.030Z,2.85
2023-05-26T02:00:04.889Z,3.38
2023-05-26T02:04:12.945Z,3.22
2023-05-26T02:08:19.700Z,3.05
2023-05-26T02:12:26.416Z,2.38
2023-05-26T02:16:33.895Z,2.58
2023-05-26T02:20:41.912Z,3.80
2023-05-26T02:24:48.831Z,3.03
2023-05-26T02:28:56.806Z,3.30
2023-05-26T02:33:03.770Z,3.13
2023-05-26T02:37:10.644Z,2.88
2023-05-26T02:41:17.367Z,3.05
2023-05-26T02:45:24.123Z,4.45
2023-05-26T02:49:30.866Z,4.07
2023-05-26T02:53:39.615Z,2.80
2023-05-26T02:57:46.402Z,1.98
2023-05-26T03:01:53.299Z,4.30
2023-05-26T03:06:00.109Z,2.22
2023-05-26T03:10:07.131Z,3.00
2023-05-26T03:14:13.844Z,5.18
2023-05-26T03:18:20.756Z,3.63
2023-05-26T03:22:41.378Z,3.13
2023-05-26T03:26:54.140Z,2.78
2023-05-26T03:31:01.104Z,3.30
2023-05-26T03:35:08.228Z,2.88
2023-05-26T03:39:14.940Z,2.63
2023-05-26T03:43:21.645Z,3.17
2023-05-26T03:47:28.362Z,3.65
2023-05-26T03:51:35.118Z,3.38
2023-05-26T03:55:41.848Z,3.72
2023-05-26T03:59:48.620Z,4.20
2023-05-26T04:03:55.557Z,3.15
2023-05-26T04:08:02.257Z,4.43
2023-05-26T04:12:09.245Z,3.35
2023-05-26T04:16:16.041Z,2.70
2023-05-26T04:20:22.867Z,3.65
2023-05-26T04:24:29.699Z,2.95
2023-05-26T04:28:36.411Z,3.33
2023-05-26T04:32:43.766Z,2.92
2023-05-26T04:36:50.755Z,3.83
2023-05-26T04:40:58.608Z,2.78
2023-05-26T04:45:06.497Z,3.45
2023-05-26T04:49:13.367Z,3.28
2023-05-26T04:53:20.357Z,3.10
2023-05-26T04:57:27.035Z,3.13
2023-05-26T05:01:33.941Z,2.47
2023-05-26T05:05:40.802Z,4.28
2023-05-26T05:09:47.536Z,2.80
2023-05-26T05:13:54.239Z,2.97
2023-05-26T05:18:03.439Z,3.65
2023-05-26T05:22:10.278Z,3.72
2023-05-26T05:26:17.087Z,4.18
2023-05-26T05:30:23.901Z,2.88
2023-05-26T05:34:30.621Z,2.55
2023-05-26T05:38:37.587Z,3.47
2023-05-26T05:42:44.281Z,3.22
2023-05-26T05:46:52.747Z,3.17
2023-05-26T05:51:00.763Z,2.53
2023-05-26T05:55:07.989Z,3.42
2023-05-26T05:59:14.740Z,3.08
2023-05-26T06:03:21.860Z,4.10
2023-05-26T06:07:28.646Z,3.30
2023-05-26T06:11:35.611Z,4.03
2023-05-26T06:15:42.355Z,4.25
2023-05-26T06:19:49.038Z,3.97
2023-05-26T06:23:55.792Z,2.72
2023-05-26T06:28:02.512Z,4.97
2023-05-26T06:32:09.302Z,4.00
2023-05-26T06:36:16.517Z,2.42
2023-05-26T06:40:23.798Z,3.60
2023-05-26T06:44:30.724Z,4.22
2023-05-26T06:48:37.474Z,3.05
2023-05-26T06:52:44.190Z,3.90
2023-05-26T06:56:50.932Z,2.58
2023-05-26T07:01:02.851Z,2.83
2023-05-26T07:05:09.769Z,4.70
2023-05-26T07:09:16.617Z,4.28
2023-05-26T07:13:23.540Z,2.50
2023-05-26T07:17:30.388Z,3.28
2023-05-26T07:21:37.185Z,2.75
2023-05-26T07:25:43.880Z,1.98
2023-05-26T07:29:50.629Z,3.72
2023-05-26T07:33:57.440Z,3.35
2023-05-26T07:38:04.393Z,3.40
2023-05-26T07:42:11.228Z,4.15
2023-05-26T07:46:18.017Z,2.70
2023-05-26T07:50:24.853Z,2.80
2023-05-26T07:54:31.658Z,3.75
2023-05-26T07:58:40.138Z,2.53
2023-05-26T08:02:46.918Z,3.40
2023-05-26T08:06:53.730Z,3.22
2023-05-26T08:11:00.458Z,3.97
2023-05-26T08:15:17.044Z,3.20
2023-05-26T08:19:25.516Z,2.95
2023-05-26T08:23:32.196Z,2.55
2023-05-26T08:27:38.965Z,3.45
2023-05-26T08:31:45.753Z,3.83
2023-05-26T08:35:52.733Z,2.35
2023-05-26T08:39:59.594Z,3.15
2023-05-26T08:44:07.938Z,3.15
2023-05-26T08:48:16.746Z,5.05
2023-05-26T08:52:24.549Z,2.70
2023-05-26T08:56:32.460Z,2.35
2023-05-26T09:00:41.501Z,2.35
2023-05-26T09:04:48.251Z,3.45
2023-05-26T09:08:54.948Z,2.72
2023-05-26T09:13:06.755Z,2.55
2023-05-26T09:17:14.626Z,2.97
2023-05-26T09:21:21.578Z,2.47
2023-05-26T09:25:39.587Z,2.80
2023-05-26T09:29:59.112Z,2.75
2023-05-26T09:34:06.495Z,3.85
2023-05-26T09:38:15.364Z,3.13
2023-05-26T09:42:22.803Z,3.03
2023-05-26T09:46:29.713Z,2.08
2023-05-26T09:50:38.355Z,2.30
2023-05-26T09:54:47.885Z,2.60
2023-05-26T09:58:57.383Z,2.28
2023-05-26T10:03:04.751Z,2.80
2023-05-26T10:07:13.152Z,2.22
2023-05-26T10:11:21.793Z,1.85
2023-05-26T10:15:29.431Z,2.38
2023-05-26T10:19:36.416Z,2.15
2023-05-26T10:23:50.270Z,2.40
2023-05-26T10:28:35.011Z,1.95
2023-05-26T10:32:46.000Z,2.53
2023-05-26T10:37:02.609Z,2.60
2023-05-26T10:41:13.799Z,2.05
2023-05-26T10:45:20.917Z,2.05
2023-05-26T10:49:27.605Z,2.10
2023-05-26T10:53:36.252Z,2.30
2023-05-26T10:57:43.042Z,1.63
2023-05-26T11:01:53.959Z,2.00
2023-05-26T11:06:01.045Z,2.07
2023-05-26T11:10:08.661Z,2.38
2023-05-26T11:14:15.471Z,1.92
2023-05-26T11:18:22.916Z,4.03
2023-05-26T11:22:30.207Z,2.78
2023-05-26T11:26:37.065Z,1.70
2023-05-26T11:30:43.801Z,2.65
2023-05-26T11:34:50.713Z,1.85
2023-05-26T11:39:02.120Z,1.40
2023-05-26T11:43:09.468Z,1.73
2023-05-26T11:47:16.935Z,1.98
2023-05-26T11:51:23.848Z,2.30
2023-05-26T11:55:31.010Z,1.75
2023-05-26T11:59:37.743Z,1.65
2023-05-26T12:03:47.457Z,1.95
2023-05-26T12:08:05.041Z,1.75
2023-05-26T12:12:13.469Z,1.35
2023-05-26T12:16:22.971Z,1.75
2023-05-26T12:24:40.706Z,1.45
2023-05-26T12:28:47.451Z,1.08
2023-05-26T12:32:54.635Z,1.55
2023-05-26T12:37:01.457Z,2.42
2023-05-26T12:41:08.191Z,1.55
2023-05-26T12:45:14.930Z,1.88
2023-05-26T12:49:21.687Z,2.70
2023-05-26T12:53:28.547Z,1.70
2023-05-26T12:57:35.501Z,2.20
2023-05-26T13:01:42.363Z,2.03
2023-05-26T13:05:52.236Z,1.45
2023-05-26T13:09:59.362Z,1.80
2023-05-26T13:14:06.524Z,1.20
2023-05-26T13:18:13.266Z,1.25
2023-05-26T13:22:20.224Z,1.20
2023-05-26T13:26:26.967Z,1.58
2023-05-26T13:30:33.804Z,1.90
2023-05-26T13:34:40.662Z,0.93
2023-05-26T13:38:47.337Z,0.90
2023-05-26T13:42:54.074Z,1.15
2023-05-26T13:47:00.800Z,1.63
2023-05-26T13:51:07.613Z,1.80
2023-05-26T13:55:14.339Z,1.15
2023-05-26T13:59:21.096Z,1.13
2023-05-26T14:03:27.883Z,0.95
2023-05-26T14:07:34.739Z,1.00
2023-05-26T14:11:41.578Z,1.05
2023-05-26T14:15:48.490Z,1.02
2023-05-26T14:20:07.839Z,1.65
2023-05-26T14:24:16.752Z,1.27
2023-05-26T14:28:23.453Z,1.67
2023-05-26T14:32:30.333Z,1.67
2023-05-26T14:36:37.530Z,1.27
2023-05-26T14:40:44.276Z,1.08
2023-05-26T14:44:52.044Z,2.20
2023-05-26T14:49:00.518Z,2.05
2023-05-26T14:53:07.232Z,1.20
2023-05-26T14:57:13.982Z,0.90
2023-05-26T15:01:20.944Z,1.17
2023-05-26T15:05:27.717Z,1.15
2023-05-26T15:09:34.509Z,1.77
2023-05-26T15:13:41.772Z,1.33
2023-05-26T15:17:49.711Z,1.10
2023-05-26T15:21:56.440Z,1.15
2023-05-26T15:26:03.182Z,1.33
2023-05-26T15:30:11.175Z,2.25
2023-05-26T15:34:18.327Z,1.40
2023-05-26T15:38:25.130Z,1.35
2023-05-26T15:42:32.780Z,1.17
2023-05-26T15:46:41.523Z,1.55
2023-05-26T15:50:49.986Z,2.00
2023-05-26T15:54:56.871Z,1.90
2023-05-26T15:59:03.729Z,1.13
2023-05-26T16:03:10.736Z,1.17
2023-05-26T16:07:17.689Z,1.45
2023-05-26T16:11:24.626Z,2.20
2023-05-26T16:15:31.630Z,2.08
2023-05-26T16:19:38.583Z,1.60
2023-05-26T16:23:45.512Z,2.03
2023-05-26T16:27:52.198Z,1.38
2023-05-26T16:31:59.044Z,1.73
2023-05-26T16:36:06.114Z,1.98
2023-05-26T16:40:13.103Z,2.08
2023-05-26T16:44:19.950Z,1.85
2023-05-26T16:48:26.700Z,1.55
2023-05-26T16:52:33.477Z,1.50
2023-05-26T16:56:40.969Z,2.65
2023-05-26T17:00:47.847Z,1.10
2023-05-26T17:04:54.819Z,1.85
2023-05-26T17:09:01.621Z,1.92
2023-05-26T17:13:08.333Z,2.30
2023-05-26T17:17:15.173Z,1.80
2023-05-26T17:21:22.288Z,1.13
2023-05-26T17:25:29.092Z,2.80
2023-05-26T17:29:35.963Z,1.63
2023-05-26T17:33:42.756Z,1.33
2023-05-26T17:37:49.675Z,1.50
2023-05-26T17:41:56.383Z,2.95
2023-05-26T17:46:03.240Z,2.17
2023-05-26T17:50:12.023Z,1.50
2023-05-26T17:54:18.873Z,1.83
2023-05-26T17:58:26.156Z,1.52
2023-05-26T18:02:35.045Z,1.88
2023-05-26T18:06:42.643Z,3.08
2023-05-26T18:10:52.264Z,1.95
2023-05-26T18:14:58.984Z,1.55
2023-05-26T18:19:05.706Z,1.60
2023-05-26T18:23:12.678Z,1.42
2023-05-26T18:27:19.746Z,1.60
2023-05-26T18:31:26.500Z,2.10
2023-05-26T18:35:33.292Z,1.63
2023-05-26T18:39:39.964Z,2.47
2023-05-26T18:43:46.781Z,2.10
2023-05-26T18:47:53.590Z,1.38
2023-05-26T18:52:00.432Z,1.83
2023-05-26T18:56:07.522Z,1.38
2023-05-26T19:00:15.664Z,1.20
2023-05-26T19:04:22.680Z,1.58
2023-05-26T19:08:29.445Z,1.52
2023-05-26T19:12:36.192Z,1.30
2023-05-26T19:16:42.891Z,2.17
2023-05-26T19:20:49.873Z,1.70
2023-05-26T19:24:56.688Z,1.50
2023-05-26T19:29:05.110Z,1.27
2023-05-26T19:33:11.882Z,1.40
2023-05-26T19:37:18.640Z,1.17
2023-05-26T19:41:27.286Z,1.98
2023-05-26T19:45:34.515Z,1.35
2023-05-26T19:49:41.257Z,1.95
2023-05-26T19:53:47.927Z,1.98
2023-05-26T19:57:54.750Z,1.13
2023-05-26T20:02:01.827Z,2.95
2023-05-26T20:06:08.619Z,1.38
2023-05-26T20:10:15.515Z,2.05
2023-05-26T20:14:22.235Z,2.50
2023-05-26T20:18:29.242Z,1.27
2023-05-26T20:22:36.516Z,1.63
2023-05-26T20:26:43.209Z,1.45
2023-05-26T20:30:50.053Z,1.65
2023-05-26T20:34:57.080Z,2.72
2023-05-26T20:39:04.459Z,2.28
2023-05-26T20:43:11.143Z,3.38
2023-05-26T20:47:17.866Z,1.63
2023-05-26T20:51:26.844Z,1.30
2023-05-26T20:55:35.965Z,2.50
2023-05-26T20:59:46.098Z,1.08
2023-05-26T21:03:52.981Z,1.73
2023-05-26T21:07:59.783Z,1.30
2023-05-26T21:12:08.023Z,1.58
2023-05-26T21:16:14.814Z,1.42
2023-05-26T21:20:21.622Z,1.98
2023-05-26T21:24:28.376Z,1.55
2023-05-26T21:28:35.292Z,1.15
2023-05-26T21:32:42.100Z,1.95
2023-05-26T21:36:48.826Z,1.70
2023-05-26T21:40:55.667Z,3.60
2023-05-26T21:45:02.604Z,2.72
2023-05-26T21:49:09.317Z,1.38
2023-05-26T21:53:16.376Z,2.00
2023-05-26T21:57:23.102Z,1.25
2023-05-26T22:01:29.904Z,1.15
2023-05-26T22:05:36.633Z,1.50
2023-05-26T22:09:43.397Z,1.50
2023-05-26T22:13:50.993Z,1.15
2023-05-26T22:17:57.786Z,1.92
2023-05-26T22:22:04.822Z,1.73
2023-05-26T22:26:11.782Z,1.17
2023-05-26T22:30:18.511Z,1.20
2023-05-26T22:34:25.221Z,1.15
2023-05-26T22:38:31.936Z,1.23
2023-05-26T22:42:38.628Z,1.35
2023-05-26T22:46:45.491Z,1.98
2023-05-26T22:50:52.241Z,1.35
2023-05-26T22:54:58.978Z,1.23
2023-05-26T22:59:05.690Z,1.02
2023-05-26T23:03:12.418Z,2.03
2023-05-26T23:07:19.168Z,1.50
2023-05-26T23:11:27.639Z,1.80
2023-05-26T23:15:34.598Z,1.85
2023-05-26T23:19:42.206Z,1.77
2023-05-26T23:23:49.385Z,1.33
2023-05-26T23:27:56.137Z,1.30
2023-05-26T23:32:03.152Z,1.73
2023-05-26T23:36:10.499Z,1.73
2023-05-26T23:40:17.265Z,1.05
2023-05-26T23:44:23.953Z,1.42
2023-05-26T23:48:30.681Z,1.20
2023-05-26T23:52:37.405Z,1.55
2023-05-26T23:56:44.117Z,1.08
